Eastman, Canada
Current Conditions -  °F | °C
As of 11:37 AM on Tuesday 21 Oct 2014 (Local Time) from CYSC Reporting Station
Light Rain Light Rain  
Wind Chill: 42°   Ceiling: 4400
Heat Index: 45°   Visibility: 9mi
Dew Point: 43°   Wind: 5mph
Humidity: 93%   Direction: 60°ENE
Pressure: 30.03"   Gusts: NA
Location:  45.3°N, 72.32°W
Report Text: CYSC 211537Z AUTO 06004KT 9SM -RA SCT035 OVC044 07/06 A3003 RMK SLP178
Loading
Personal Weather Stations






























Interactive Weather Map
Tropical Storm Tracking
New forecast layout! Learn more

10-Day Weather Forecast

Advertisements
Track Severe Weather on mobile